createdAt,value
2023-05-12T00:00:15.548Z,2.33
2023-05-12T00:02:43.677Z,2.73
2023-05-12T00:05:10.637Z,2.60
2023-05-12T00:07:37.342Z,3.93
2023-05-12T00:10:04.528Z,2.87
2023-05-12T00:12:31.742Z,2.33
2023-05-12T00:14:58.490Z,2.40
2023-05-12T00:17:25.235Z,3.10
2023-05-12T00:19:53.400Z,2.70
2023-05-12T00:22:20.103Z,2.87
2023-05-12T00:24:46.856Z,2.57
2023-05-12T00:27:13.570Z,2.47
2023-05-12T00:29:40.273Z,2.70
2023-05-12T00:32:07.198Z,3.10
2023-05-12T00:34:34.030Z,2.50
2023-05-12T00:37:02.067Z,2.67
2023-05-12T00:39:28.805Z,2.70
2023-05-12T00:41:56.245Z,2.90
2023-05-12T00:44:23.151Z,2.10
2023-05-12T00:46:50.428Z,2.83
2023-05-12T00:49:17.242Z,2.63
2023-05-12T00:51:44.041Z,3.13
2023-05-12T00:54:12.364Z,2.67
2023-05-12T00:56:39.158Z,2.60
2023-05-12T00:59:05.865Z,2.97
2023-05-12T01:01:33.048Z,2.60
2023-05-12T01:04:00.526Z,2.90
2023-05-12T01:06:32.801Z,3.00
2023-05-12T01:09:00.508Z,2.20
2023-05-12T01:11:28.607Z,2.00
2023-05-12T01:13:55.313Z,2.33
2023-05-12T01:16:26.222Z,3.00
2023-05-12T01:18:55.669Z,2.97
2023-05-12T01:21:22.428Z,3.37
2023-05-12T01:23:56.666Z,3.50
2023-05-12T01:26:25.082Z,2.57
2023-05-12T01:28:52.732Z,3.60
2023-05-12T01:31:21.231Z,3.13
2023-05-12T01:33:48.078Z,2.60
2023-05-12T01:36:14.811Z,3.40
2023-05-12T01:38:41.939Z,2.70
2023-05-12T01:41:08.662Z,3.10
2023-05-12T01:43:36.746Z,3.00
2023-05-12T01:46:03.491Z,3.27
2023-05-12T01:48:30.633Z,3.00
2023-05-12T01:50:59.670Z,3.17
2023-05-12T01:53:26.401Z,3.53
2023-05-12T01:55:53.186Z,3.90
2023-05-12T01:58:19.932Z,3.40
2023-05-12T02:00:47.896Z,2.73
2023-05-12T02:03:14.642Z,3.20
2023-05-12T02:05:41.397Z,3.20
2023-05-12T02:08:08.239Z,3.20
2023-05-12T02:10:34.904Z,3.03
2023-05-12T02:13:01.630Z,3.20
2023-05-12T02:15:28.304Z,3.03
2023-05-12T02:17:56.424Z,3.77
2023-05-12T02:20:23.170Z,3.10
2023-05-12T02:22:49.978Z,3.60
2023-05-12T02:25:16.682Z,4.30
2023-05-12T02:27:43.315Z,3.37
2023-05-12T02:30:10.442Z,3.10
2023-05-12T02:32:37.104Z,2.80
2023-05-12T02:35:06.290Z,3.27
2023-05-12T02:37:33.017Z,4.17
2023-05-12T02:39:59.718Z,3.30
2023-05-12T02:42:26.427Z,4.27
2023-05-12T02:44:53.089Z,4.13
2023-05-12T02:47:19.859Z,4.17
2023-05-12T02:49:47.002Z,4.03
2023-05-12T02:52:15.007Z,3.97
2023-05-12T02:54:41.739Z,3.90
2023-05-12T02:57:08.391Z,2.73
2023-05-12T02:59:35.077Z,3.30
2023-05-12T03:02:01.894Z,3.40
2023-05-12T03:04:28.616Z,3.10
2023-05-12T03:06:55.392Z,4.73
2023-05-12T03:09:23.443Z,4.03
2023-05-12T03:11:50.188Z,3.67
2023-05-12T03:14:16.857Z,3.93
2023-05-12T03:16:43.616Z,3.70
2023-05-12T03:19:10.459Z,4.80
2023-05-12T03:21:37.176Z,4.43
2023-05-12T03:24:04.475Z,3.90
2023-05-12T03:26:32.550Z,4.10
2023-05-12T03:28:59.235Z,4.10
2023-05-12T03:31:26.057Z,3.77
2023-05-12T03:33:52.832Z,4.10
2023-05-12T03:36:19.550Z,5.33
2023-05-12T03:38:46.311Z,3.70
2023-05-12T03:41:12.946Z,3.23
2023-05-12T03:43:40.952Z,4.30
2023-05-12T03:46:07.900Z,3.60
2023-05-12T03:48:34.708Z,4.00
2023-05-12T03:51:01.425Z,3.30
2023-05-12T03:53:28.198Z,3.30
2023-05-12T03:55:54.954Z,3.47
2023-05-12T03:58:22.553Z,3.63
2023-05-12T04:00:50.702Z,3.60
2023-05-12T04:03:17.763Z,3.80
2023-05-12T04:05:44.587Z,3.90
2023-05-12T04:08:11.375Z,3.07
2023-05-12T04:10:39.038Z,3.53
2023-05-12T04:13:05.713Z,3.60
2023-05-12T04:15:32.425Z,4.20
2023-05-12T04:18:00.531Z,4.80
2023-05-12T04:20:27.253Z,3.57
2023-05-12T04:22:53.961Z,3.80
2023-05-12T04:25:20.692Z,4.60
2023-05-12T04:27:47.392Z,4.97
2023-05-12T04:30:14.197Z,4.17
2023-05-12T04:32:40.861Z,4.70
2023-05-12T04:35:09.500Z,4.73
2023-05-12T04:37:36.186Z,5.33
2023-05-12T04:40:03.099Z,5.70
2023-05-12T04:42:30.169Z,5.60
2023-05-12T04:44:56.842Z,5.87
2023-05-12T04:47:23.670Z,5.87
2023-05-12T04:49:50.433Z,5.07
2023-05-12T04:52:18.435Z,5.20
2023-05-12T04:54:45.114Z,5.07
2023-05-12T04:57:12.013Z,5.93
2023-05-12T04:59:40.519Z,4.43
2023-05-12T05:02:07.962Z,6.07
2023-05-12T05:04:34.815Z,5.47
2023-05-12T05:07:01.444Z,5.13
2023-05-12T05:09:29.470Z,7.20
2023-05-12T05:11:56.231Z,6.40
2023-05-12T05:14:23.097Z,6.63
2023-05-12T05:16:49.865Z,6.23
2023-05-12T05:19:23.025Z,5.87
2023-05-12T05:21:56.816Z,6.30
2023-05-12T05:24:23.487Z,6.47
2023-05-12T05:26:51.548Z,6.47
2023-05-12T05:29:18.404Z,7.20
2023-05-12T05:31:45.232Z,7.50
2023-05-12T05:34:12.137Z,6.67
2023-05-12T05:36:39.223Z,7.37
2023-05-12T05:39:05.910Z,6.37
2023-05-12T05:41:32.602Z,7.17
2023-05-12T05:44:00.572Z,8.07
2023-05-12T05:46:27.262Z,6.40
2023-05-12T05:48:53.967Z,7.03
2023-05-12T05:51:20.694Z,7.00
2023-05-12T05:53:47.446Z,8.07
2023-05-12T05:56:14.252Z,6.73
2023-05-12T05:58:41.006Z,7.43
2023-05-12T06:01:09.075Z,7.30
2023-05-12T06:03:35.829Z,6.03
2023-05-12T06:06:02.583Z,6.43
2023-05-12T06:08:29.305Z,6.93
2023-05-12T06:10:55.992Z,8.30
2023-05-12T06:13:22.665Z,6.90
2023-05-12T06:15:49.692Z,6.37
2023-05-12T06:18:17.811Z,6.70
2023-05-12T06:20:44.507Z,6.70
2023-05-12T06:23:11.145Z,7.03
2023-05-12T06:25:38.099Z,7.63
2023-05-12T06:28:04.822Z,7.00
2023-05-12T06:30:31.530Z,6.63
2023-05-12T06:32:58.195Z,7.90
2023-05-12T06:35:26.390Z,7.60
2023-05-12T06:37:53.041Z,7.50
2023-05-12T06:40:19.705Z,7.97
2023-05-12T06:42:46.425Z,8.20
2023-05-12T06:45:13.120Z,8.10
2023-05-12T06:47:39.866Z,8.40
2023-05-12T06:50:07.884Z,7.50
2023-05-12T06:52:36.212Z,8.10
2023-05-12T06:55:03.040Z,7.43
2023-05-12T06:57:29.808Z,6.97
2023-05-12T06:59:56.464Z,5.83
2023-05-12T07:02:23.181Z,6.37
2023-05-12T07:04:49.888Z,6.83
2023-05-12T07:07:16.539Z,6.37
2023-05-12T07:09:44.482Z,6.70
2023-05-12T07:12:11.240Z,7.60
2023-05-12T07:14:37.961Z,5.67
2023-05-12T07:17:04.719Z,6.40
2023-05-12T07:19:31.385Z,6.33
2023-05-12T07:21:58.237Z,7.07
2023-05-12T07:24:25.018Z,7.40
2023-05-12T07:26:53.013Z,6.40
2023-05-12T07:29:19.728Z,6.30
2023-05-12T07:31:46.610Z,7.30
2023-05-12T07:34:13.401Z,6.73
2023-05-12T07:36:40.116Z,6.70
2023-05-12T07:39:06.837Z,6.37
2023-05-12T07:41:34.533Z,5.93
2023-05-12T07:44:02.916Z,6.43
2023-05-12T07:46:29.592Z,6.20
2023-05-12T07:48:56.348Z,6.50
2023-05-12T07:51:23.133Z,5.80
2023-05-12T07:53:49.807Z,6.43
2023-05-12T07:56:16.513Z,6.40
2023-05-12T07:58:44.118Z,5.77
2023-05-12T08:01:12.978Z,5.70
2023-05-12T08:03:39.784Z,6.23
2023-05-12T08:06:06.520Z,6.87
2023-05-12T08:08:33.400Z,5.60
2023-05-12T08:11:00.096Z,6.80
2023-05-12T08:13:26.723Z,6.13
2023-05-12T08:15:53.420Z,5.97
2023-05-12T08:18:21.466Z,5.77
2023-05-12T08:20:49.593Z,5.37
2023-05-12T08:23:16.696Z,6.47
2023-05-12T08:25:43.439Z,6.00
2023-05-12T08:28:11.386Z,6.30
2023-05-12T08:30:38.126Z,6.50
2023-05-12T08:33:04.957Z,5.77
2023-05-12T08:35:33.247Z,5.90
2023-05-12T08:38:00.075Z,6.27
2023-05-12T08:40:30.973Z,6.10
2023-05-12T08:43:06.818Z,5.57
2023-05-12T08:45:36.406Z,6.07
2023-05-12T08:48:04.506Z,4.70
2023-05-12T08:50:35.360Z,4.80
2023-05-12T08:53:03.591Z,3.83
2023-05-12T08:55:33.469Z,5.13
2023-05-12T08:58:02.968Z,4.00
2023-05-12T09:00:31.169Z,4.50
2023-05-12T09:02:59.671Z,4.30
2023-05-12T09:05:29.456Z,3.77
2023-05-12T09:07:58.394Z,3.83
2023-05-12T09:10:35.086Z,3.80
2023-05-12T09:13:04.486Z,3.93
2023-05-12T09:15:35.323Z,2.27
2023-05-12T09:18:02.089Z,4.17
2023-05-12T09:20:31.751Z,4.40
2023-05-12T09:23:12.888Z,3.70
2023-05-12T09:25:39.656Z,2.50
2023-05-12T09:28:06.413Z,3.30
2023-05-12T09:30:33.062Z,3.70
2023-05-12T09:33:06.887Z,3.33
2023-05-12T09:35:38.755Z,3.80
2023-05-12T09:38:11.312Z,4.00
2023-05-12T09:40:38.775Z,4.00
2023-05-12T09:43:06.829Z,2.13
2023-05-12T09:45:34.522Z,4.40
2023-05-12T09:48:08.009Z,3.50
2023-05-12T09:50:44.197Z,4.60
2023-05-12T09:53:14.893Z,3.97
2023-05-12T09:55:43.120Z,3.40
2023-05-12T09:58:10.701Z,3.70
2023-05-12T10:00:58.627Z,3.50
2023-05-12T10:03:29.328Z,2.90
2023-05-12T10:05:59.892Z,3.50
2023-05-12T10:09:26.231Z,3.80
2023-05-12T10:11:53.924Z,3.70
2023-05-12T10:14:23.393Z,3.40
2023-05-12T10:16:50.384Z,3.80
2023-05-12T10:19:18.673Z,3.83
2023-05-12T10:21:46.655Z,3.03
2023-05-12T10:24:14.987Z,3.13
2023-05-12T10:26:42.611Z,3.10
2023-05-12T10:29:12.015Z,2.77
2023-05-12T10:31:39.328Z,3.40
2023-05-12T10:34:06.023Z,3.20
2023-05-12T10:36:43.486Z,3.00
2023-05-12T10:39:13.487Z,3.33
2023-05-12T10:41:40.155Z,3.33
2023-05-12T10:44:06.925Z,3.30
2023-05-12T10:46:35.004Z,3.37
2023-05-12T10:49:03.094Z,2.97
2023-05-12T10:51:31.581Z,3.50
2023-05-12T10:54:01.546Z,3.37
2023-05-12T10:56:30.878Z,3.90
2023-05-12T10:59:15.068Z,3.50
2023-05-12T11:01:56.571Z,3.60
2023-05-12T11:04:23.939Z,3.67
2023-05-12T11:06:59.369Z,3.30
2023-05-12T11:09:27.143Z,3.43
2023-05-12T11:11:54.291Z,3.73
2023-05-12T11:14:21.108Z,3.43
2023-05-12T11:16:49.082Z,3.90
2023-05-12T11:19:18.780Z,4.10
2023-05-12T11:21:45.430Z,4.17
2023-05-12T11:24:15.085Z,3.73
2023-05-12T11:26:42.074Z,3.57
2023-05-12T11:29:08.785Z,3.23
2023-05-12T11:31:35.514Z,3.90
2023-05-12T11:34:11.403Z,3.57
2023-05-12T11:36:41.174Z,3.40
2023-05-12T11:39:12.913Z,4.73
2023-05-12T11:41:39.844Z,3.73
2023-05-12T11:44:16.759Z,3.10
2023-05-12T11:46:57.696Z,3.57
2023-05-12T11:49:26.635Z,3.23
2023-05-12T11:51:54.187Z,3.80
2023-05-12T11:54:21.629Z,3.43
2023-05-12T11:56:49.360Z,4.10
2023-05-12T11:59:26.761Z,3.73
2023-05-12T12:01:53.709Z,4.17
2023-05-12T12:04:31.462Z,3.97
2023-05-12T12:06:58.164Z,4.50
2023-05-12T12:09:31.382Z,3.47
2023-05-12T12:11:58.180Z,4.20
2023-05-12T12:14:24.869Z,3.10
2023-05-12T12:16:51.539Z,4.10
2023-05-12T12:19:18.515Z,4.10
2023-05-12T12:21:46.550Z,3.90
2023-05-12T12:24:13.228Z,3.67
2023-05-12T12:26:39.889Z,4.40
2023-05-12T12:29:06.638Z,3.63
2023-05-12T12:31:33.368Z,4.10
2023-05-12T12:34:00.041Z,3.87
2023-05-12T12:36:26.730Z,3.83
2023-05-12T12:38:54.745Z,4.10
2023-05-12T12:41:21.499Z,3.83
2023-05-12T12:43:48.282Z,3.80
2023-05-12T12:46:14.968Z,3.57
2023-05-12T12:48:41.640Z,3.83
2023-05-12T12:51:08.385Z,4.03
2023-05-12T12:53:35.137Z,4.40
2023-05-12T12:56:03.191Z,3.43
2023-05-12T12:58:30.054Z,3.60
2023-05-12T13:00:56.805Z,3.63
2023-05-12T13:03:24.078Z,4.93
2023-05-12T13:05:50.905Z,3.40
2023-05-12T13:08:17.572Z,3.63
2023-05-12T13:10:44.249Z,4.10
2023-05-12T13:13:12.276Z,3.87
2023-05-12T13:15:39.038Z,5.03
2023-05-12T13:18:05.843Z,3.70
2023-05-12T13:20:32.601Z,4.07
2023-05-12T13:22:59.262Z,3.80
2023-05-12T13:25:25.923Z,3.87
2023-05-12T13:27:52.549Z,4.43
2023-05-12T13:30:20.522Z,3.67
2023-05-12T13:32:47.227Z,3.93
2023-05-12T13:35:13.916Z,4.50
2023-05-12T13:37:40.596Z,3.33
2023-05-12T13:40:08.468Z,3.30
2023-05-12T13:42:35.342Z,4.90
2023-05-12T13:45:02.039Z,4.30
2023-05-12T13:47:29.999Z,4.07
2023-05-12T13:49:56.662Z,4.30
2023-05-12T13:52:23.366Z,3.27
2023-05-12T13:54:50.131Z,3.83
2023-05-12T13:57:16.822Z,4.07
2023-05-12T13:59:43.518Z,3.50
2023-05-12T14:02:10.245Z,4.43
2023-05-12T14:04:38.423Z,3.83
2023-05-12T14:07:07.212Z,3.63
2023-05-12T14:09:35.154Z,4.30
2023-05-12T14:12:01.828Z,3.60
2023-05-12T14:14:28.475Z,4.80
2023-05-12T14:16:55.330Z,2.77
2023-05-12T14:19:22.015Z,3.40
2023-05-12T14:21:49.984Z,3.73
2023-05-12T14:24:16.634Z,4.00
2023-05-12T14:26:43.298Z,3.97
2023-05-12T14:29:09.960Z,4.17
2023-05-12T14:31:36.716Z,3.60
2023-05-12T14:34:03.829Z,4.07
2023-05-12T14:36:30.678Z,5.20
2023-05-12T14:38:58.643Z,3.30
2023-05-12T14:41:25.305Z,4.10
2023-05-12T14:43:51.926Z,5.23
2023-05-12T14:46:18.687Z,8.90
2023-05-12T14:48:45.355Z,3.77
2023-05-12T14:51:12.019Z,5.20
2023-05-12T14:53:38.775Z,4.70
2023-05-12T14:56:06.873Z,4.40
2023-05-12T14:58:33.586Z,4.30
2023-05-12T15:01:00.621Z,3.70
2023-05-12T15:03:27.412Z,4.63
2023-05-12T15:06:05.533Z,3.83
2023-05-12T15:08:33.516Z,4.63
2023-05-12T15:11:00.234Z,4.50
2023-05-12T15:13:28.326Z,4.73
2023-05-12T15:15:56.661Z,4.23
2023-05-12T15:18:23.851Z,4.43
2023-05-12T15:20:50.643Z,3.83
2023-05-12T15:23:17.354Z,5.10
2023-05-12T15:25:44.065Z,4.27
2023-05-12T15:28:10.711Z,4.50
2023-05-12T15:30:38.730Z,4.10
2023-05-12T15:33:05.513Z,4.77
2023-05-12T15:35:32.447Z,3.83
2023-05-12T15:37:59.271Z,3.90
2023-05-12T15:40:26.017Z,3.87
2023-05-12T15:42:52.712Z,3.53
2023-05-12T15:45:19.612Z,3.80
2023-05-12T15:47:47.829Z,3.83
2023-05-12T15:50:14.484Z,4.10
2023-05-12T15:52:41.132Z,4.13
2023-05-12T15:55:08.272Z,3.20
2023-05-12T15:57:34.895Z,4.43
2023-05-12T16:00:01.717Z,4.70
2023-05-12T16:02:28.465Z,4.50
2023-05-12T16:04:56.508Z,4.30
2023-05-12T16:07:23.191Z,3.70
2023-05-12T16:09:49.824Z,3.10
2023-05-12T16:12:16.499Z,5.30
2023-05-12T16:14:43.126Z,4.30
2023-05-12T16:17:09.727Z,3.60
2023-05-12T16:19:36.423Z,3.50
2023-05-12T16:22:04.748Z,3.50
2023-05-12T16:24:31.449Z,3.40
2023-05-12T16:26:58.133Z,4.40
2023-05-12T16:29:25.016Z,4.43
2023-05-12T16:31:51.819Z,3.40
2023-05-12T16:34:18.565Z,3.70
2023-05-12T16:36:45.351Z,3.60
2023-05-12T16:39:13.767Z,3.47
2023-05-12T16:41:40.417Z,3.37
2023-05-12T16:44:07.090Z,3.50
2023-05-12T16:46:33.872Z,4.10
2023-05-12T16:49:00.538Z,3.33
2023-05-12T16:51:27.304Z,4.30
2023-05-12T16:53:53.945Z,4.17
2023-05-12T16:56:22.575Z,4.03
2023-05-12T16:58:49.286Z,3.53
2023-05-12T17:01:15.932Z,4.30
2023-05-12T17:03:42.674Z,3.77
2023-05-12T17:06:09.390Z,3.27
2023-05-12T17:08:36.101Z,3.67
2023-05-12T17:11:04.239Z,4.27
2023-05-12T17:13:35.508Z,4.17
2023-05-12T17:16:02.207Z,3.40
2023-05-12T17:18:28.931Z,2.07
2023-05-12T17:20:55.581Z,3.87
2023-05-12T17:23:22.229Z,4.00
2023-05-12T17:25:48.901Z,4.00
2023-05-12T17:28:15.564Z,3.20
2023-05-12T17:30:43.532Z,3.17
2023-05-12T17:33:10.401Z,4.10
2023-05-12T17:35:37.373Z,4.93
2023-05-12T17:38:04.068Z,3.80
2023-05-12T17:40:30.898Z,2.27
2023-05-12T17:43:00.730Z,3.60
2023-05-12T17:45:27.376Z,3.73
2023-05-12T17:47:58.224Z,3.97
2023-05-12T17:50:25.231Z,4.03
2023-05-12T17:52:53.544Z,4.07
2023-05-12T17:55:20.482Z,3.60
2023-05-12T17:57:47.252Z,5.97
2023-05-12T18:00:15.421Z,3.10
2023-05-12T18:02:42.107Z,4.10
2023-05-12T18:05:12.344Z,3.47
2023-05-12T18:07:39.263Z,4.70
2023-05-12T18:10:07.483Z,3.80
2023-05-12T18:12:34.175Z,4.00
2023-05-12T18:15:00.823Z,3.80
2023-05-12T18:17:27.699Z,3.97
2023-05-12T18:19:54.526Z,4.63
2023-05-12T18:22:22.504Z,3.90
2023-05-12T18:24:49.238Z,4.20
2023-05-12T18:27:15.913Z,3.80
2023-05-12T18:29:42.603Z,4.20
2023-05-12T18:32:09.316Z,3.57
2023-05-12T18:34:36.108Z,4.50
2023-05-12T18:37:02.750Z,4.20
2023-05-12T18:39:30.759Z,3.63
2023-05-12T18:41:57.469Z,4.20
2023-05-12T18:44:24.099Z,3.67
2023-05-12T18:46:50.933Z,4.57
2023-05-12T18:49:17.720Z,3.67
2023-05-12T18:51:44.411Z,4.90
2023-05-12T18:54:11.104Z,4.90
2023-05-12T18:56:39.105Z,4.40
2023-05-12T18:59:05.765Z,4.53
2023-05-12T19:01:33.433Z,3.97
2023-05-12T19:04:00.218Z,4.60
2023-05-12T19:06:26.869Z,4.77
2023-05-12T19:08:53.572Z,4.57
2023-05-12T19:11:20.248Z,3.73
2023-05-12T19:13:48.215Z,4.40
2023-05-12T19:16:15.168Z,4.10
2023-05-12T19:18:41.928Z,4.30
2023-05-12T19:21:08.726Z,4.77
2023-05-12T19:23:35.407Z,3.90
2023-05-12T19:26:02.122Z,3.50
2023-05-12T19:28:28.811Z,3.83
2023-05-12T19:30:56.815Z,3.73
2023-05-12T19:33:23.506Z,3.90
2023-05-12T19:35:50.166Z,3.70
2023-05-12T19:38:16.816Z,4.73
2023-05-12T19:40:44.044Z,3.70
2023-05-12T19:43:10.786Z,4.07
2023-05-12T19:45:37.506Z,4.43
2023-05-12T19:48:06.253Z,3.67
2023-05-12T19:50:33.097Z,4.50
2023-05-12T19:52:59.753Z,4.30
2023-05-12T19:55:26.513Z,4.80
2023-05-12T19:57:53.140Z,4.73
2023-05-12T20:00:19.999Z,4.30
2023-05-12T20:02:46.804Z,3.60
2023-05-12T20:05:14.861Z,4.70
2023-05-12T20:07:41.501Z,4.70
2023-05-12T20:10:09.154Z,4.50
2023-05-12T20:12:35.876Z,5.67
2023-05-12T20:15:02.600Z,4.40
2023-05-12T20:17:29.290Z,4.40
2023-05-12T20:19:55.959Z,3.83
2023-05-12T20:22:24.018Z,3.90
2023-05-12T20:24:50.672Z,5.07
2023-05-12T20:27:17.338Z,4.77
2023-05-12T20:29:44.012Z,4.00
2023-05-12T20:32:11.940Z,4.47
2023-05-12T20:34:39.591Z,4.10
2023-05-12T20:37:06.233Z,3.90
2023-05-12T20:39:34.239Z,4.20
2023-05-12T20:42:00.891Z,4.10
2023-05-12T20:44:27.565Z,3.83
2023-05-12T20:46:54.247Z,4.50
2023-05-12T20:49:21.088Z,4.17
2023-05-12T20:51:47.810Z,4.20
2023-05-12T20:54:14.442Z,3.90
2023-05-12T20:56:42.437Z,4.30
2023-05-12T20:59:09.160Z,4.00
2023-05-12T21:01:36.021Z,3.90
2023-05-12T21:04:02.842Z,3.87
2023-05-12T21:06:29.574Z,4.20
2023-05-12T21:08:56.256Z,5.23
2023-05-12T21:11:23.048Z,3.23
2023-05-12T21:13:51.009Z,3.40
2023-05-12T21:16:17.707Z,4.40
2023-05-12T21:18:44.494Z,4.03
2023-05-12T21:21:11.187Z,4.03
2023-05-12T21:23:37.933Z,4.00
2023-05-12T21:26:05.201Z,4.20
2023-05-12T21:28:32.068Z,5.30
2023-05-12T21:31:00.139Z,4.43
2023-05-12T21:33:26.895Z,3.97
2023-05-12T21:35:53.704Z,4.67
2023-05-12T21:38:20.338Z,4.70
2023-05-12T21:40:49.232Z,3.43
2023-05-12T21:43:15.886Z,4.47
2023-05-12T21:45:42.550Z,4.40
2023-05-12T21:48:10.582Z,4.13
2023-05-12T21:50:40.239Z,3.50
2023-05-12T21:53:06.988Z,3.73
2023-05-12T21:55:33.688Z,3.90
2023-05-12T21:58:00.324Z,3.30
2023-05-12T22:00:27.034Z,4.73
2023-05-12T22:02:53.875Z,3.70
2023-05-12T22:05:22.016Z,4.40
2023-05-12T22:07:48.781Z,4.07
2023-05-12T22:10:15.655Z,3.83
2023-05-12T22:12:42.364Z,3.43
2023-05-12T22:15:09.653Z,4.13
2023-05-12T22:17:36.377Z,4.00
2023-05-12T22:20:03.252Z,3.60
2023-05-12T22:22:31.246Z,3.90
2023-05-12T22:24:57.941Z,3.50
2023-05-12T22:27:24.598Z,3.80
2023-05-12T22:29:51.232Z,4.47
2023-05-12T22:32:17.916Z,4.00
2023-05-12T22:34:44.586Z,3.47
2023-05-12T22:37:11.277Z,4.23
2023-05-12T22:39:39.352Z,3.80
2023-05-12T22:42:06.501Z,3.90
2023-05-12T22:44:33.183Z,3.53
2023-05-12T22:46:59.904Z,4.00
2023-05-12T22:49:26.582Z,4.03
2023-05-12T22:51:53.362Z,3.90
2023-05-12T22:54:20.009Z,4.30
2023-05-12T22:56:48.135Z,4.73
2023-05-12T22:59:14.825Z,4.13
2023-05-12T23:01:41.521Z,4.20
2023-05-12T23:04:08.402Z,4.40
2023-05-12T23:06:35.087Z,4.03
2023-05-12T23:09:01.774Z,3.73
2023-05-12T23:11:28.450Z,5.30
2023-05-12T23:13:56.432Z,4.37
2023-05-12T23:16:23.088Z,4.43
2023-05-12T23:18:49.961Z,4.20
2023-05-12T23:21:16.724Z,4.20
2023-05-12T23:23:43.538Z,4.00
2023-05-12T23:26:10.382Z,3.90
2023-05-12T23:28:37.027Z,3.93
2023-05-12T23:31:05.066Z,4.00
2023-05-12T23:33:31.868Z,3.90
2023-05-12T23:35:58.620Z,4.13
2023-05-12T23:38:28.376Z,4.40
2023-05-12T23:40:55.058Z,3.97
2023-05-12T23:43:21.820Z,4.30
2023-05-12T23:45:48.547Z,4.67
2023-05-12T23:48:16.577Z,5.00
2023-05-12T23:50:43.274Z,4.10
2023-05-12T23:53:09.932Z,4.20
2023-05-12T23:55:37.111Z,3.97
2023-05-12T23:58:03.821Z,4.83
